sensor_id;sensor_type;location;lat;lon;timestamp;P1;durP1;ratioP1;P2;durP2;ratioP2
819;SDS011;392;48.838;2.322;2023-05-07T00:00:50;3.57;;;3.27;;
819;SDS011;392;48.838;2.322;2023-05-07T00:03:17;3.07;;;2.87;;
819;SDS011;392;48.838;2.322;2023-05-07T00:05:45;2.90;;;2.67;;
819;SDS011;392;48.838;2.322;2023-05-07T00:08:13;4.03;;;3.10;;
819;SDS011;392;48.838;2.322;2023-05-07T00:10:42;3.10;;;2.90;;
819;SDS011;392;48.838;2.322;2023-05-07T00:13:09;3.60;;;3.40;;
819;SDS011;392;48.838;2.322;2023-05-07T00:15:37;4.37;;;4.00;;
819;SDS011;392;48.838;2.322;2023-05-07T00:18:04;4.50;;;3.87;;
819;SDS011;392;48.838;2.322;2023-05-07T00:20:31;3.30;;;3.10;;
819;SDS011;392;48.838;2.322;2023-05-07T00:22:59;3.80;;;3.50;;
819;SDS011;392;48.838;2.322;2023-05-07T00:25:26;3.40;;;3.20;;
819;SDS011;392;48.838;2.322;2023-05-07T00:27:55;3.50;;;3.30;;
819;SDS011;392;48.838;2.322;2023-05-07T00:30:22;4.00;;;3.67;;
819;SDS011;392;48.838;2.322;2023-05-07T00:32:50;3.93;;;3.60;;
819;SDS011;392;48.838;2.322;2023-05-07T00:35:17;4.00;;;3.80;;
819;SDS011;392;48.838;2.322;2023-05-07T00:37:44;4.07;;;3.77;;
819;SDS011;392;48.838;2.322;2023-05-07T00:40:12;4.23;;;3.83;;
819;SDS011;392;48.838;2.322;2023-05-07T00:42:39;3.80;;;3.43;;
819;SDS011;392;48.838;2.322;2023-05-07T00:45:08;3.73;;;3.50;;
819;SDS011;392;48.838;2.322;2023-05-07T00:47:37;3.70;;;3.50;;
819;SDS011;392;48.838;2.322;2023-05-07T00:50:05;3.10;;;2.97;;
819;SDS011;392;48.838;2.322;2023-05-07T00:52:34;3.07;;;2.40;;
819;SDS011;392;48.838;2.322;2023-05-07T00:55:01;2.80;;;2.60;;
819;SDS011;392;48.838;2.322;2023-05-07T00:57:33;3.20;;;2.17;;
819;SDS011;392;48.838;2.322;2023-05-07T01:00:03;2.23;;;2.13;;
819;SDS011;392;48.838;2.322;2023-05-07T01:02:35;2.70;;;2.50;;
819;SDS011;392;48.838;2.322;2023-05-07T01:05:02;2.93;;;2.83;;
819;SDS011;392;48.838;2.322;2023-05-07T01:07:35;2.93;;;2.50;;
819;SDS011;392;48.838;2.322;2023-05-07T01:10:05;2.40;;;2.30;;
819;SDS011;392;48.838;2.322;2023-05-07T01:12:34;3.27;;;2.30;;
819;SDS011;392;48.838;2.322;2023-05-07T01:15:03;2.23;;;2.10;;
819;SDS011;392;48.838;2.322;2023-05-07T01:17:35;2.20;;;2.00;;
819;SDS011;392;48.838;2.322;2023-05-07T01:20:07;2.30;;;2.10;;
819;SDS011;392;48.838;2.322;2023-05-07T01:22:37;2.63;;;2.43;;
819;SDS011;392;48.838;2.322;2023-05-07T01:25:06;2.27;;;2.07;;
819;SDS011;392;48.838;2.322;2023-05-07T01:27:38;2.67;;;2.57;;
819;SDS011;392;48.838;2.322;2023-05-07T01:30:06;2.40;;;2.30;;
819;SDS011;392;48.838;2.322;2023-05-07T01:32:37;2.60;;;2.37;;
819;SDS011;392;48.838;2.322;2023-05-07T01:35:10;2.37;;;2.17;;
819;SDS011;392;48.838;2.322;2023-05-07T01:37:43;3.50;;;2.73;;
819;SDS011;392;48.838;2.322;2023-05-07T01:40:11;3.07;;;2.70;;
819;SDS011;392;48.838;2.322;2023-05-07T01:42:39;2.93;;;2.50;;
819;SDS011;392;48.838;2.322;2023-05-07T01:45:08;2.50;;;2.13;;
819;SDS011;392;48.838;2.322;2023-05-07T01:47:37;2.10;;;2.00;;
819;SDS011;392;48.838;2.322;2023-05-07T01:50:06;2.87;;;2.67;;
819;SDS011;392;48.838;2.322;2023-05-07T01:52:36;2.30;;;2.20;;
819;SDS011;392;48.838;2.322;2023-05-07T01:55:06;2.70;;;2.50;;
819;SDS011;392;48.838;2.322;2023-05-07T01:57:34;3.43;;;2.30;;
819;SDS011;392;48.838;2.322;2023-05-07T02:00:02;2.00;;;2.00;;
819;SDS011;392;48.838;2.322;2023-05-07T02:02:41;2.37;;;2.27;;
819;SDS011;392;48.838;2.322;2023-05-07T02:05:18;2.73;;;2.60;;
819;SDS011;392;48.838;2.322;2023-05-07T02:07:50;2.23;;;2.13;;
819;SDS011;392;48.838;2.322;2023-05-07T02:10:19;1.90;;;1.80;;
819;SDS011;392;48.838;2.322;2023-05-07T02:12:46;2.50;;;2.20;;
819;SDS011;392;48.838;2.322;2023-05-07T02:15:13;2.30;;;2.20;;
819;SDS011;392;48.838;2.322;2023-05-07T02:20:27;2.30;;;2.10;;
819;SDS011;392;48.838;2.322;2023-05-07T02:22:55;1.90;;;1.80;;
819;SDS011;392;48.838;2.322;2023-05-07T02:25:26;2.60;;;2.40;;
819;SDS011;392;48.838;2.322;2023-05-07T02:27:54;2.37;;;2.27;;
819;SDS011;392;48.838;2.322;2023-05-07T02:30:29;3.43;;;3.13;;
819;SDS011;392;48.838;2.322;2023-05-07T02:32:58;2.50;;;2.40;;
819;SDS011;392;48.838;2.322;2023-05-07T02:35:25;5.53;;;5.10;;
819;SDS011;392;48.838;2.322;2023-05-07T02:37:53;8.17;;;6.07;;
819;SDS011;392;48.838;2.322;2023-05-07T02:40:23;5.03;;;4.47;;
819;SDS011;392;48.838;2.322;2023-05-07T02:42:51;4.13;;;3.83;;
819;SDS011;392;48.838;2.322;2023-05-07T02:45:18;3.87;;;3.57;;
819;SDS011;392;48.838;2.322;2023-05-07T02:47:48;2.50;;;2.30;;
819;SDS011;392;48.838;2.322;2023-05-07T02:50:16;2.03;;;1.93;;
819;SDS011;392;48.838;2.322;2023-05-07T02:52:43;2.30;;;2.20;;
819;SDS011;392;48.838;2.322;2023-05-07T02:55:11;2.07;;;1.97;;
819;SDS011;392;48.838;2.322;2023-05-07T02:57:38;1.80;;;1.70;;
819;SDS011;392;48.838;2.322;2023-05-07T03:00:11;1.63;;;1.53;;
819;SDS011;392;48.838;2.322;2023-05-07T03:02:47;1.73;;;1.63;;
819;SDS011;392;48.838;2.322;2023-05-07T03:05:14;2.40;;;2.20;;
819;SDS011;392;48.838;2.322;2023-05-07T03:07:42;1.83;;;1.70;;
819;SDS011;392;48.838;2.322;2023-05-07T03:10:11;1.80;;;1.70;;
819;SDS011;392;48.838;2.322;2023-05-07T03:12:39;1.77;;;1.70;;
819;SDS011;392;48.838;2.322;2023-05-07T03:15:08;1.83;;;1.73;;
819;SDS011;392;48.838;2.322;2023-05-07T03:17:38;1.57;;;1.50;;
819;SDS011;392;48.838;2.322;2023-05-07T03:20:06;1.70;;;1.53;;
819;SDS011;392;48.838;2.322;2023-05-07T03:22:35;1.57;;;1.57;;
819;SDS011;392;48.838;2.322;2023-05-07T03:25:02;1.10;;;1.10;;
819;SDS011;392;48.838;2.322;2023-05-07T03:27:31;1.70;;;1.60;;
819;SDS011;392;48.838;2.322;2023-05-07T03:29:58;1.03;;;1.03;;
819;SDS011;392;48.838;2.322;2023-05-07T03:32:26;1.30;;;1.30;;
819;SDS011;392;48.838;2.322;2023-05-07T03:34:54;1.10;;;1.10;;
819;SDS011;392;48.838;2.322;2023-05-07T03:37:22;1.20;;;1.20;;
819;SDS011;392;48.838;2.322;2023-05-07T03:39:49;1.10;;;1.10;;
819;SDS011;392;48.838;2.322;2023-05-07T03:42:17;1.27;;;1.27;;
819;SDS011;392;48.838;2.322;2023-05-07T03:44:47;1.00;;;1.00;;
819;SDS011;392;48.838;2.322;2023-05-07T03:47:15;1.00;;;1.00;;
819;SDS011;392;48.838;2.322;2023-05-07T03:49:43;1.00;;;1.00;;
819;SDS011;392;48.838;2.322;2023-05-07T03:52:13;1.30;;;1.20;;
819;SDS011;392;48.838;2.322;2023-05-07T03:54:40;1.30;;;1.30;;
819;SDS011;392;48.838;2.322;2023-05-07T03:57:08;1.37;;;1.27;;
819;SDS011;392;48.838;2.322;2023-05-07T03:59:35;1.40;;;1.40;;
819;SDS011;392;48.838;2.322;2023-05-07T04:02:03;1.03;;;0.93;;
819;SDS011;392;48.838;2.322;2023-05-07T04:04:31;1.40;;;1.30;;
819;SDS011;392;48.838;2.322;2023-05-07T04:06:59;1.10;;;1.00;;
819;SDS011;392;48.838;2.322;2023-05-07T04:09:28;1.17;;;1.17;;
819;SDS011;392;48.838;2.322;2023-05-07T04:11:56;1.63;;;1.30;;
819;SDS011;392;48.838;2.322;2023-05-07T04:14:24;1.20;;;1.20;;
819;SDS011;392;48.838;2.322;2023-05-07T04:16:51;1.60;;;1.60;;
819;SDS011;392;48.838;2.322;2023-05-07T04:19:19;1.50;;;1.50;;
819;SDS011;392;48.838;2.322;2023-05-07T04:21:49;1.53;;;1.10;;
819;SDS011;392;48.838;2.322;2023-05-07T04:24:16;1.40;;;1.40;;
819;SDS011;392;48.838;2.322;2023-05-07T04:26:46;1.53;;;1.43;;
819;SDS011;392;48.838;2.322;2023-05-07T04:29:14;1.57;;;1.47;;
819;SDS011;392;48.838;2.322;2023-05-07T04:31:41;1.33;;;1.33;;
819;SDS011;392;48.838;2.322;2023-05-07T04:34:10;1.67;;;1.57;;
819;SDS011;392;48.838;2.322;2023-05-07T04:36:37;1.13;;;1.00;;
819;SDS011;392;48.838;2.322;2023-05-07T04:39:09;1.43;;;1.33;;
819;SDS011;392;48.838;2.322;2023-05-07T04:41:40;1.50;;;1.40;;
819;SDS011;392;48.838;2.322;2023-05-07T04:44:09;1.30;;;1.27;;
819;SDS011;392;48.838;2.322;2023-05-07T04:46:37;1.33;;;1.33;;
819;SDS011;392;48.838;2.322;2023-05-07T04:49:05;1.50;;;1.50;;
819;SDS011;392;48.838;2.322;2023-05-07T04:51:33;1.77;;;1.67;;
819;SDS011;392;48.838;2.322;2023-05-07T04:54:01;1.50;;;1.50;;
819;SDS011;392;48.838;2.322;2023-05-07T04:56:30;1.50;;;1.40;;
819;SDS011;392;48.838;2.322;2023-05-07T04:58:59;1.60;;;1.50;;
819;SDS011;392;48.838;2.322;2023-05-07T05:01:28;1.30;;;1.30;;
819;SDS011;392;48.838;2.322;2023-05-07T05:03:56;1.50;;;1.40;;
819;SDS011;392;48.838;2.322;2023-05-07T05:06:25;1.30;;;1.30;;
819;SDS011;392;48.838;2.322;2023-05-07T05:08:53;1.20;;;1.20;;
819;SDS011;392;48.838;2.322;2023-05-07T05:11:21;1.33;;;1.23;;
819;SDS011;392;48.838;2.322;2023-05-07T05:13:49;1.83;;;1.73;;
819;SDS011;392;48.838;2.322;2023-05-07T05:16:19;1.53;;;1.43;;
819;SDS011;392;48.838;2.322;2023-05-07T05:18:49;1.17;;;1.17;;
819;SDS011;392;48.838;2.322;2023-05-07T05:21:18;1.50;;;1.40;;
819;SDS011;392;48.838;2.322;2023-05-07T05:23:48;1.87;;;1.40;;
819;SDS011;392;48.838;2.322;2023-05-07T05:26:19;1.37;;;1.27;;
819;SDS011;392;48.838;2.322;2023-05-07T05:28:47;1.47;;;1.37;;
819;SDS011;392;48.838;2.322;2023-05-07T05:31:16;1.20;;;1.20;;
819;SDS011;392;48.838;2.322;2023-05-07T05:33:44;1.10;;;1.10;;
819;SDS011;392;48.838;2.322;2023-05-07T05:36:13;1.30;;;1.20;;
819;SDS011;392;48.838;2.322;2023-05-07T05:38:42;1.20;;;1.20;;
819;SDS011;392;48.838;2.322;2023-05-07T05:41:11;1.10;;;1.10;;
819;SDS011;392;48.838;2.322;2023-05-07T05:43:38;1.17;;;1.07;;
819;SDS011;392;48.838;2.322;2023-05-07T05:46:06;1.20;;;1.20;;
819;SDS011;392;48.838;2.322;2023-05-07T05:48:34;1.40;;;1.33;;
819;SDS011;392;48.838;2.322;2023-05-07T05:51:03;2.10;;;1.07;;
819;SDS011;392;48.838;2.322;2023-05-07T05:53:32;1.70;;;1.63;;
819;SDS011;392;48.838;2.322;2023-05-07T05:55:59;1.70;;;1.60;;
819;SDS011;392;48.838;2.322;2023-05-07T05:58:27;1.10;;;1.10;;
819;SDS011;392;48.838;2.322;2023-05-07T06:00:59;1.50;;;1.50;;
819;SDS011;392;48.838;2.322;2023-05-07T06:03:28;1.70;;;1.60;;
819;SDS011;392;48.838;2.322;2023-05-07T06:05:59;1.60;;;1.40;;
819;SDS011;392;48.838;2.322;2023-05-07T06:08:28;3.03;;;2.17;;
819;SDS011;392;48.838;2.322;2023-05-07T06:10:58;2.17;;;1.60;;
819;SDS011;392;48.838;2.322;2023-05-07T06:13:26;1.10;;;1.03;;
819;SDS011;392;48.838;2.322;2023-05-07T06:15:53;1.53;;;1.43;;
819;SDS011;392;48.838;2.322;2023-05-07T06:18:21;0.90;;;0.90;;
819;SDS011;392;48.838;2.322;2023-05-07T06:20:48;1.30;;;1.30;;
819;SDS011;392;48.838;2.322;2023-05-07T06:23:23;1.07;;;1.00;;
819;SDS011;392;48.838;2.322;2023-05-07T06:25:50;1.10;;;1.10;;
819;SDS011;392;48.838;2.322;2023-05-07T06:28:23;1.33;;;1.33;;
819;SDS011;392;48.838;2.322;2023-05-07T06:30:51;1.57;;;1.50;;
819;SDS011;392;48.838;2.322;2023-05-07T06:33:18;1.23;;;1.23;;
819;SDS011;392;48.838;2.322;2023-05-07T06:35:46;1.37;;;1.30;;
819;SDS011;392;48.838;2.322;2023-05-07T06:38:13;2.20;;;2.10;;
819;SDS011;392;48.838;2.322;2023-05-07T06:40:42;1.37;;;1.37;;
819;SDS011;392;48.838;2.322;2023-05-07T06:43:09;1.70;;;1.60;;
819;SDS011;392;48.838;2.322;2023-05-07T06:45:48;1.73;;;1.63;;
819;SDS011;392;48.838;2.322;2023-05-07T06:48:15;1.70;;;1.60;;
819;SDS011;392;48.838;2.322;2023-05-07T06:50:50;1.10;;;1.10;;
819;SDS011;392;48.838;2.322;2023-05-07T06:53:18;1.30;;;1.30;;
819;SDS011;392;48.838;2.322;2023-05-07T06:55:45;1.73;;;1.40;;
819;SDS011;392;48.838;2.322;2023-05-07T06:58:14;1.40;;;1.40;;
819;SDS011;392;48.838;2.322;2023-05-07T07:00:42;1.63;;;1.60;;
819;SDS011;392;48.838;2.322;2023-05-07T07:03:11;1.53;;;1.43;;
819;SDS011;392;48.838;2.322;2023-05-07T07:05:40;1.47;;;1.47;;
819;SDS011;392;48.838;2.322;2023-05-07T07:08:07;1.40;;;1.30;;
819;SDS011;392;48.838;2.322;2023-05-07T07:10:36;1.50;;;1.40;;
819;SDS011;392;48.838;2.322;2023-05-07T07:13:03;1.67;;;1.57;;
819;SDS011;392;48.838;2.322;2023-05-07T07:15:30;1.70;;;1.70;;
819;SDS011;392;48.838;2.322;2023-05-07T07:17:58;1.60;;;1.60;;
819;SDS011;392;48.838;2.322;2023-05-07T07:20:26;1.70;;;1.60;;
819;SDS011;392;48.838;2.322;2023-05-07T07:22:54;2.30;;;2.20;;
819;SDS011;392;48.838;2.322;2023-05-07T07:25:21;1.87;;;1.77;;
819;SDS011;392;48.838;2.322;2023-05-07T07:27:50;1.70;;;1.60;;
819;SDS011;392;48.838;2.322;2023-05-07T07:30:18;1.70;;;1.70;;
819;SDS011;392;48.838;2.322;2023-05-07T07:32:47;1.97;;;1.87;;
819;SDS011;392;48.838;2.322;2023-05-07T07:35:15;1.50;;;1.50;;
819;SDS011;392;48.838;2.322;2023-05-07T07:37:45;1.50;;;1.50;;
819;SDS011;392;48.838;2.322;2023-05-07T07:40:13;2.10;;;2.00;;
819;SDS011;392;48.838;2.322;2023-05-07T07:42:41;1.40;;;1.40;;
819;SDS011;392;48.838;2.322;2023-05-07T07:45:09;1.40;;;1.30;;
819;SDS011;392;48.838;2.322;2023-05-07T07:47:41;1.63;;;1.63;;
819;SDS011;392;48.838;2.322;2023-05-07T07:50:09;1.40;;;1.40;;
819;SDS011;392;48.838;2.322;2023-05-07T07:52:37;1.90;;;1.80;;
819;SDS011;392;48.838;2.322;2023-05-07T07:55:07;1.73;;;1.63;;
819;SDS011;392;48.838;2.322;2023-05-07T07:57:36;1.70;;;1.60;;
819;SDS011;392;48.838;2.322;2023-05-07T08:00:04;1.87;;;1.77;;
819;SDS011;392;48.838;2.322;2023-05-07T08:02:42;2.17;;;2.07;;
819;SDS011;392;48.838;2.322;2023-05-07T08:05:14;2.10;;;2.00;;
819;SDS011;392;48.838;2.322;2023-05-07T08:07:42;1.83;;;1.73;;
819;SDS011;392;48.838;2.322;2023-05-07T08:10:14;1.60;;;1.60;;
819;SDS011;392;48.838;2.322;2023-05-07T08:12:47;1.93;;;1.90;;
819;SDS011;392;48.838;2.322;2023-05-07T08:15:15;2.37;;;2.27;;
819;SDS011;392;48.838;2.322;2023-05-07T08:17:44;2.47;;;2.00;;
819;SDS011;392;48.838;2.322;2023-05-07T08:20:11;2.77;;;2.67;;
819;SDS011;392;48.838;2.322;2023-05-07T08:22:39;2.40;;;2.30;;
819;SDS011;392;48.838;2.322;2023-05-07T08:25:07;2.10;;;2.00;;
819;SDS011;392;48.838;2.322;2023-05-07T08:27:36;2.40;;;2.20;;
819;SDS011;392;48.838;2.322;2023-05-07T08:30:04;2.80;;;2.70;;
819;SDS011;392;48.838;2.322;2023-05-07T08:32:34;2.90;;;2.80;;
819;SDS011;392;48.838;2.322;2023-05-07T08:35:02;2.80;;;2.70;;
819;SDS011;392;48.838;2.322;2023-05-07T08:37:30;3.00;;;2.90;;
819;SDS011;392;48.838;2.322;2023-05-07T08:39:58;4.00;;;3.80;;
819;SDS011;392;48.838;2.322;2023-05-07T08:42:30;3.00;;;2.90;;
819;SDS011;392;48.838;2.322;2023-05-07T08:45:04;2.57;;;2.47;;
819;SDS011;392;48.838;2.322;2023-05-07T08:47:40;2.83;;;2.63;;
819;SDS011;392;48.838;2.322;2023-05-07T08:50:12;2.27;;;2.17;;
819;SDS011;392;48.838;2.322;2023-05-07T08:52:40;2.73;;;2.63;;
819;SDS011;392;48.838;2.322;2023-05-07T08:55:09;2.30;;;2.20;;
819;SDS011;392;48.838;2.322;2023-05-07T08:57:39;2.37;;;2.27;;
819;SDS011;392;48.838;2.322;2023-05-07T09:00:08;2.53;;;2.43;;
819;SDS011;392;48.838;2.322;2023-05-07T09:02:37;2.73;;;2.60;;
819;SDS011;392;48.838;2.322;2023-05-07T09:05:07;2.97;;;2.87;;
819;SDS011;392;48.838;2.322;2023-05-07T09:07:35;2.37;;;2.27;;
819;SDS011;392;48.838;2.322;2023-05-07T09:10:06;2.00;;;2.00;;
819;SDS011;392;48.838;2.322;2023-05-07T09:12:38;1.90;;;1.90;;
819;SDS011;392;48.838;2.322;2023-05-07T09:15:08;2.37;;;2.27;;
819;SDS011;392;48.838;2.322;2023-05-07T09:17:37;2.23;;;2.13;;
819;SDS011;392;48.838;2.322;2023-05-07T09:20:06;2.20;;;2.10;;
819;SDS011;392;48.838;2.322;2023-05-07T09:22:36;2.00;;;1.90;;
819;SDS011;392;48.838;2.322;2023-05-07T09:25:08;2.10;;;2.00;;
819;SDS011;392;48.838;2.322;2023-05-07T09:27:38;2.27;;;2.17;;
819;SDS011;392;48.838;2.322;2023-05-07T09:30:06;2.50;;;2.40;;
819;SDS011;392;48.838;2.322;2023-05-07T09:32:36;2.53;;;2.43;;
819;SDS011;392;48.838;2.322;2023-05-07T09:35:05;2.50;;;2.40;;
819;SDS011;392;48.838;2.322;2023-05-07T09:37:41;2.80;;;2.70;;
819;SDS011;392;48.838;2.322;2023-05-07T09:40:09;2.53;;;2.43;;
819;SDS011;392;48.838;2.322;2023-05-07T09:42:49;2.50;;;2.40;;
819;SDS011;392;48.838;2.322;2023-05-07T09:45:21;2.90;;;2.70;;
819;SDS011;392;48.838;2.322;2023-05-07T09:47:49;2.40;;;2.30;;
819;SDS011;392;48.838;2.322;2023-05-07T09:50:23;2.60;;;2.50;;
819;SDS011;392;48.838;2.322;2023-05-07T09:52:56;3.20;;;3.10;;
819;SDS011;392;48.838;2.322;2023-05-07T09:55:24;3.53;;;3.33;;
819;SDS011;392;48.838;2.322;2023-05-07T09:57:54;2.87;;;2.77;;
819;SDS011;392;48.838;2.322;2023-05-07T10:00:22;3.87;;;3.67;;
819;SDS011;392;48.838;2.322;2023-05-07T10:02:58;52.87;;;24.37;;
819;SDS011;392;48.838;2.322;2023-05-07T10:05:37;2.83;;;2.73;;
819;SDS011;392;48.838;2.322;2023-05-07T10:08:05;3.40;;;3.30;;
819;SDS011;392;48.838;2.322;2023-05-07T10:10:36;3.30;;;3.20;;
819;SDS011;392;48.838;2.322;2023-05-07T10:13:09;2.90;;;2.80;;
819;SDS011;392;48.838;2.322;2023-05-07T10:15:39;3.33;;;3.23;;
819;SDS011;392;48.838;2.322;2023-05-07T10:18:08;2.77;;;2.67;;
819;SDS011;392;48.838;2.322;2023-05-07T10:20:38;3.37;;;3.17;;
819;SDS011;392;48.838;2.322;2023-05-07T10:23:10;3.10;;;2.80;;
819;SDS011;392;48.838;2.322;2023-05-07T10:25:45;2.73;;;2.57;;
819;SDS011;392;48.838;2.322;2023-05-07T10:28:19;3.87;;;3.57;;
819;SDS011;392;48.838;2.322;2023-05-07T10:30:54;2.60;;;2.50;;
819;SDS011;392;48.838;2.322;2023-05-07T10:33:38;2.70;;;2.70;;
819;SDS011;392;48.838;2.322;2023-05-07T10:36:07;3.17;;;3.07;;
819;SDS011;392;48.838;2.322;2023-05-07T10:38:35;3.30;;;3.20;;
819;SDS011;392;48.838;2.322;2023-05-07T10:41:04;2.97;;;2.87;;
819;SDS011;392;48.838;2.322;2023-05-07T10:43:41;2.90;;;2.80;;
819;SDS011;392;48.838;2.322;2023-05-07T10:46:31;3.00;;;2.90;;
819;SDS011;392;48.838;2.322;2023-05-07T10:49:11;3.37;;;3.27;;
819;SDS011;392;48.838;2.322;2023-05-07T10:52:16;3.00;;;2.90;;
819;SDS011;392;48.838;2.322;2023-05-07T10:55:19;3.20;;;3.10;;
819;SDS011;392;48.838;2.322;2023-05-07T10:58:28;3.30;;;3.20;;
819;SDS011;392;48.838;2.322;2023-05-07T11:01:13;3.63;;;3.43;;
819;SDS011;392;48.838;2.322;2023-05-07T11:10:01;4.83;;;4.43;;
819;SDS011;392;48.838;2.322;2023-05-07T11:12:54;4.03;;;3.83;;
819;SDS011;392;48.838;2.322;2023-05-07T11:15:39;4.40;;;4.20;;
819;SDS011;392;48.838;2.322;2023-05-07T11:18:17;3.60;;;3.40;;
819;SDS011;392;48.838;2.322;2023-05-07T11:20:48;3.40;;;3.30;;
819;SDS011;392;48.838;2.322;2023-05-07T11:23:57;4.10;;;3.90;;
819;SDS011;392;48.838;2.322;2023-05-07T11:26:41;5.33;;;5.03;;
819;SDS011;392;48.838;2.322;2023-05-07T11:29:11;4.27;;;3.90;;
819;SDS011;392;48.838;2.322;2023-05-07T11:31:42;5.10;;;4.70;;
819;SDS011;392;48.838;2.322;2023-05-07T11:34:12;4.93;;;4.67;;
819;SDS011;392;48.838;2.322;2023-05-07T11:36:42;4.70;;;4.50;;
819;SDS011;392;48.838;2.322;2023-05-07T11:39:24;6.90;;;6.50;;
819;SDS011;392;48.838;2.322;2023-05-07T11:41:53;6.07;;;5.57;;
819;SDS011;392;48.838;2.322;2023-05-07T11:44:20;5.57;;;5.17;;
819;SDS011;392;48.838;2.322;2023-05-07T11:46:48;5.70;;;5.40;;
819;SDS011;392;48.838;2.322;2023-05-07T11:49:17;5.73;;;5.33;;
819;SDS011;392;48.838;2.322;2023-05-07T11:51:45;5.50;;;5.10;;
819;SDS011;392;48.838;2.322;2023-05-07T11:54:15;4.77;;;4.47;;
819;SDS011;392;48.838;2.322;2023-05-07T11:56:43;4.90;;;4.70;;
819;SDS011;392;48.838;2.322;2023-05-07T11:59:17;5.13;;;4.83;;
819;SDS011;392;48.838;2.322;2023-05-07T12:01:47;6.30;;;6.00;;
819;SDS011;392;48.838;2.322;2023-05-07T12:04:20;6.63;;;6.33;;
819;SDS011;392;48.838;2.322;2023-05-07T12:06:47;6.57;;;6.37;;
819;SDS011;392;48.838;2.322;2023-05-07T12:09:16;6.90;;;6.60;;
819;SDS011;392;48.838;2.322;2023-05-07T12:11:45;7.03;;;6.83;;
819;SDS011;392;48.838;2.322;2023-05-07T12:14:13;5.57;;;5.47;;
819;SDS011;392;48.838;2.322;2023-05-07T12:16:41;5.70;;;5.50;;
819;SDS011;392;48.838;2.322;2023-05-07T12:19:09;5.43;;;5.23;;
819;SDS011;392;48.838;2.322;2023-05-07T12:21:39;5.07;;;4.77;;
819;SDS011;392;48.838;2.322;2023-05-07T12:24:07;5.13;;;4.93;;
819;SDS011;392;48.838;2.322;2023-05-07T12:26:37;5.20;;;4.90;;
819;SDS011;392;48.838;2.322;2023-05-07T12:29:05;5.10;;;4.90;;
819;SDS011;392;48.838;2.322;2023-05-07T12:31:33;6.00;;;5.57;;
819;SDS011;392;48.838;2.322;2023-05-07T12:34:02;5.70;;;5.40;;
819;SDS011;392;48.838;2.322;2023-05-07T12:36:36;4.90;;;4.60;;
819;SDS011;392;48.838;2.322;2023-05-07T12:39:05;5.60;;;5.30;;
819;SDS011;392;48.838;2.322;2023-05-07T12:41:35;6.30;;;5.90;;
819;SDS011;392;48.838;2.322;2023-05-07T12:44:19;6.33;;;6.00;;
819;SDS011;392;48.838;2.322;2023-05-07T12:46:48;6.17;;;5.77;;
819;SDS011;392;48.838;2.322;2023-05-07T12:49:16;5.10;;;4.80;;
819;SDS011;392;48.838;2.322;2023-05-07T12:51:45;5.77;;;5.47;;
819;SDS011;392;48.838;2.322;2023-05-07T12:54:14;6.53;;;6.13;;
819;SDS011;392;48.838;2.322;2023-05-07T12:56:59;5.43;;;5.03;;
819;SDS011;392;48.838;2.322;2023-05-07T12:59:32;5.93;;;5.63;;
819;SDS011;392;48.838;2.322;2023-05-07T13:02:01;5.63;;;5.33;;
819;SDS011;392;48.838;2.322;2023-05-07T13:04:28;5.57;;;5.27;;
819;SDS011;392;48.838;2.322;2023-05-07T13:06:57;5.40;;;5.10;;
819;SDS011;392;48.838;2.322;2023-05-07T13:09:24;5.13;;;4.83;;
819;SDS011;392;48.838;2.322;2023-05-07T13:11:54;5.33;;;5.03;;
819;SDS011;392;48.838;2.322;2023-05-07T13:14:21;5.10;;;4.77;;
819;SDS011;392;48.838;2.322;2023-05-07T13:16:48;5.50;;;5.13;;
819;SDS011;392;48.838;2.322;2023-05-07T13:19:16;5.17;;;4.87;;
819;SDS011;392;48.838;2.322;2023-05-07T13:21:43;5.33;;;5.00;;
819;SDS011;392;48.838;2.322;2023-05-07T13:24:12;5.20;;;4.90;;
819;SDS011;392;48.838;2.322;2023-05-07T13:26:39;5.10;;;4.80;;
819;SDS011;392;48.838;2.322;2023-05-07T13:29:07;5.50;;;5.20;;
819;SDS011;392;48.838;2.322;2023-05-07T13:31:35;5.77;;;5.37;;
819;SDS011;392;48.838;2.322;2023-05-07T13:34:02;5.90;;;5.60;;
819;SDS011;392;48.838;2.322;2023-05-07T13:36:29;6.03;;;5.70;;
819;SDS011;392;48.838;2.322;2023-05-07T13:38:58;5.97;;;5.60;;
819;SDS011;392;48.838;2.322;2023-05-07T13:41:27;5.70;;;5.30;;
819;SDS011;392;48.838;2.322;2023-05-07T13:43:55;5.30;;;5.00;;
819;SDS011;392;48.838;2.322;2023-05-07T13:46:22;5.27;;;4.97;;
819;SDS011;392;48.838;2.322;2023-05-07T13:48:50;4.87;;;4.67;;
819;SDS011;392;48.838;2.322;2023-05-07T13:51:17;5.00;;;4.70;;
819;SDS011;392;48.838;2.322;2023-05-07T13:53:44;4.30;;;4.00;;
819;SDS011;392;48.838;2.322;2023-05-07T13:56:11;4.47;;;4.27;;
819;SDS011;392;48.838;2.322;2023-05-07T13:58:40;5.00;;;4.70;;
819;SDS011;392;48.838;2.322;2023-05-07T14:01:08;4.47;;;4.27;;
819;SDS011;392;48.838;2.322;2023-05-07T14:03:35;5.27;;;4.93;;
819;SDS011;392;48.838;2.322;2023-05-07T14:06:04;5.70;;;5.30;;
819;SDS011;392;48.838;2.322;2023-05-07T14:08:32;5.23;;;4.93;;
819;SDS011;392;48.838;2.322;2023-05-07T14:10:59;7.20;;;6.80;;
819;SDS011;392;48.838;2.322;2023-05-07T14:13:26;5.53;;;5.23;;
819;SDS011;392;48.838;2.322;2023-05-07T14:15:57;6.03;;;5.63;;
819;SDS011;392;48.838;2.322;2023-05-07T14:18:24;11.03;;;10.07;;
819;SDS011;392;48.838;2.322;2023-05-07T14:20:52;9.60;;;8.90;;
819;SDS011;392;48.838;2.322;2023-05-07T14:23:19;7.17;;;6.57;;
819;SDS011;392;48.838;2.322;2023-05-07T14:25:51;8.83;;;8.13;;
819;SDS011;392;48.838;2.322;2023-05-07T14:28:19;6.97;;;6.37;;
819;SDS011;392;48.838;2.322;2023-05-07T14:30:46;7.17;;;6.67;;
819;SDS011;392;48.838;2.322;2023-05-07T14:33:15;7.97;;;7.43;;
819;SDS011;392;48.838;2.322;2023-05-07T14:35:43;11.67;;;10.77;;
819;SDS011;392;48.838;2.322;2023-05-07T14:38:13;6.50;;;6.10;;
819;SDS011;392;48.838;2.322;2023-05-07T14:40:41;6.90;;;6.50;;
819;SDS011;392;48.838;2.322;2023-05-07T14:43:08;9.73;;;9.03;;
819;SDS011;392;48.838;2.322;2023-05-07T14:45:36;7.73;;;7.13;;
819;SDS011;392;48.838;2.322;2023-05-07T14:48:03;7.10;;;6.60;;
819;SDS011;392;48.838;2.322;2023-05-07T14:50:32;7.67;;;7.17;;
819;SDS011;392;48.838;2.322;2023-05-07T14:52:59;7.83;;;7.33;;
819;SDS011;392;48.838;2.322;2023-05-07T14:55:27;5.97;;;5.57;;
819;SDS011;392;48.838;2.322;2023-05-07T14:57:55;6.60;;;6.20;;
819;SDS011;392;48.838;2.322;2023-05-07T15:00:22;8.30;;;7.80;;
819;SDS011;392;48.838;2.322;2023-05-07T15:02:50;7.13;;;6.73;;
819;SDS011;392;48.838;2.322;2023-05-07T15:05:17;9.10;;;8.60;;
819;SDS011;392;48.838;2.322;2023-05-07T15:07:46;7.20;;;6.80;;
819;SDS011;392;48.838;2.322;2023-05-07T15:10:14;6.93;;;6.47;;
819;SDS011;392;48.838;2.322;2023-05-07T15:12:41;5.80;;;5.40;;
819;SDS011;392;48.838;2.322;2023-05-07T15:15:09;9.53;;;8.63;;
819;SDS011;392;48.838;2.322;2023-05-07T15:17:37;8.57;;;7.93;;
819;SDS011;392;48.838;2.322;2023-05-07T15:20:05;5.17;;;4.80;;
819;SDS011;392;48.838;2.322;2023-05-07T15:22:34;6.63;;;6.23;;
819;SDS011;392;48.838;2.322;2023-05-07T15:25:04;6.50;;;6.10;;
819;SDS011;392;48.838;2.322;2023-05-07T15:27:31;4.07;;;3.77;;
819;SDS011;392;48.838;2.322;2023-05-07T15:29:59;4.63;;;4.33;;
819;SDS011;392;48.838;2.322;2023-05-07T15:32:26;8.03;;;7.43;;
819;SDS011;392;48.838;2.322;2023-05-07T15:34:53;4.43;;;4.13;;
819;SDS011;392;48.838;2.322;2023-05-07T15:37:20;4.00;;;3.80;;
819;SDS011;392;48.838;2.322;2023-05-07T15:39:48;4.90;;;4.60;;
819;SDS011;392;48.838;2.322;2023-05-07T15:42:17;5.00;;;4.70;;
819;SDS011;392;48.838;2.322;2023-05-07T15:44:44;5.77;;;5.40;;
819;SDS011;392;48.838;2.322;2023-05-07T15:47:11;6.07;;;5.67;;
819;SDS011;392;48.838;2.322;2023-05-07T15:49:39;5.20;;;4.80;;
819;SDS011;392;48.838;2.322;2023-05-07T15:52:06;4.50;;;4.30;;
819;SDS011;392;48.838;2.322;2023-05-07T15:54:35;4.67;;;4.37;;
819;SDS011;392;48.838;2.322;2023-05-07T15:57:03;5.70;;;5.40;;
819;SDS011;392;48.838;2.322;2023-05-07T15:59:32;5.07;;;4.77;;
819;SDS011;392;48.838;2.322;2023-05-07T16:02:00;4.63;;;4.33;;
819;SDS011;392;48.838;2.322;2023-05-07T16:04:28;5.13;;;4.83;;
819;SDS011;392;48.838;2.322;2023-05-07T16:07:00;4.47;;;4.17;;
819;SDS011;392;48.838;2.322;2023-05-07T16:09:28;4.00;;;3.80;;